createdAt,value
2018-01-06T00:00:43.773Z,4.93
2018-01-06T00:03:11.365Z,5.70
2018-01-06T00:06:05.433Z,6.83
2018-01-06T00:08:33.254Z,6.03
2018-01-06T00:11:00.809Z,6.53
2018-01-06T00:13:28.383Z,8.73
2018-01-06T00:15:55.939Z,6.70
2018-01-06T00:18:23.517Z,7.50
2018-01-06T00:20:51.073Z,5.20
2018-01-06T00:23:18.655Z,4.93
2018-01-06T00:25:46.990Z,5.60
2018-01-06T00:28:14.575Z,6.53
2018-01-06T00:30:42.891Z,6.47
2018-01-06T00:33:10.479Z,8.37
2018-01-06T00:35:38.051Z,16.60
2018-01-06T00:38:05.582Z,7.63
2018-01-06T00:40:33.131Z,4.07
2018-01-06T00:43:00.704Z,7.50
2018-01-06T00:45:28.264Z,4.20
2018-01-06T00:47:55.848Z,4.20
2018-01-06T00:50:23.403Z,4.40
2018-01-06T00:52:50.980Z,4.07
2018-01-06T00:55:18.773Z,7.60
2018-01-06T00:57:47.082Z,5.37
2018-01-06T01:00:14.602Z,9.13
2018-01-06T01:02:42.897Z,4.77
2018-01-06T01:05:10.404Z,5.43
2018-01-06T01:07:37.944Z,3.37
2018-01-06T01:10:05.499Z,3.40
2018-01-06T01:12:33.038Z,4.73
2018-01-06T01:15:00.553Z,3.27
2018-01-06T01:17:28.086Z,4.27
2018-01-06T01:19:55.602Z,3.40
2018-01-06T01:22:23.138Z,5.03
2018-01-06T01:24:51.416Z,3.53
2018-01-06T01:27:19.712Z,4.30
2018-01-06T01:29:47.229Z,4.93
2018-01-06T01:32:14.773Z,5.30
2018-01-06T01:34:42.285Z,4.33
2018-01-06T01:37:09.821Z,4.57
2018-01-06T01:39:37.360Z,12.87
2018-01-06T01:42:04.875Z,4.77
2018-01-06T01:44:33.173Z,4.67
2018-01-06T01:47:00.689Z,5.90
2018-01-06T01:49:28.985Z,6.63
2018-01-06T01:51:56.501Z,3.57
2018-01-06T01:54:24.033Z,4.77
2018-01-06T01:56:51.548Z,4.43
2018-01-06T01:59:19.097Z,5.40
2018-01-06T02:01:47.372Z,4.63
2018-01-06T02:04:15.665Z,4.67
2018-01-06T02:06:43.176Z,5.17
2018-01-06T02:09:10.709Z,3.50
2018-01-06T02:11:38.226Z,4.63
2018-01-06T02:14:05.761Z,6.93
2018-01-06T02:16:34.036Z,3.37
2018-01-06T02:19:02.350Z,5.20
2018-01-06T02:21:29.861Z,5.07
2018-01-06T02:23:57.422Z,3.77
2018-01-06T02:26:24.940Z,3.47
2018-01-06T02:28:52.485Z,4.23
2018-01-06T02:31:20.005Z,4.77
2018-01-06T02:33:48.306Z,6.60
2018-01-06T02:39:09.534Z,9.77
2018-01-06T02:41:37.050Z,8.57
2018-01-06T02:44:04.588Z,9.87
2018-01-06T02:46:32.100Z,5.33
2018-01-06T02:49:00.405Z,6.10
2018-01-06T02:51:27.926Z,22.90
2018-01-06T02:53:56.232Z,31.60
2018-01-06T02:56:23.754Z,11.77
2018-01-06T02:58:52.054Z,7.43
2018-01-06T03:01:19.568Z,11.30
2018-01-06T03:03:47.105Z,9.37
2018-01-06T03:06:14.619Z,8.07
2018-01-06T03:08:42.917Z,8.07
2018-01-06T03:11:10.433Z,8.70
2018-01-06T03:13:37.961Z,6.87
2018-01-06T03:16:05.482Z,5.80
2018-01-06T03:18:33.022Z,9.03
2018-01-06T03:21:01.309Z,5.30
2018-01-06T03:23:28.855Z,6.33
2018-01-06T03:25:57.138Z,5.43
2018-01-06T03:28:25.418Z,6.93
2018-01-06T03:30:52.954Z,3.83
2018-01-06T03:33:21.251Z,4.27
2018-01-06T03:35:48.789Z,7.57
2018-01-06T03:38:17.074Z,4.50
2018-01-06T03:40:45.376Z,9.70
2018-01-06T03:43:12.945Z,7.97
2018-01-06T03:45:40.485Z,10.43
2018-01-06T03:48:08.008Z,11.40
2018-01-06T03:50:35.549Z,5.17
2018-01-06T03:53:03.304Z,5.47
2018-01-06T03:55:30.837Z,4.50
2018-01-06T03:57:58.358Z,5.73
2018-01-06T04:00:26.654Z,4.83
2018-01-06T04:02:54.173Z,5.33
2018-01-06T04:05:21.714Z,8.23
2018-01-06T04:07:50.072Z,4.67
2018-01-06T04:10:17.631Z,9.00
2018-01-06T04:12:45.145Z,5.00
2018-01-06T04:15:13.440Z,7.37
2018-01-06T04:17:40.950Z,4.90
2018-01-06T04:20:08.481Z,5.73
2018-01-06T04:22:36.017Z,4.73
2018-01-06T04:25:03.558Z,5.00
2018-01-06T04:27:31.837Z,5.43
2018-01-06T04:29:59.427Z,6.87
2018-01-06T04:32:26.953Z,6.97
2018-01-06T04:34:55.247Z,8.90
2018-01-06T04:37:22.770Z,7.27
2018-01-06T04:39:50.310Z,5.87
2018-01-06T04:42:17.834Z,4.77
2018-01-06T04:44:45.373Z,7.30
2018-01-06T04:47:12.898Z,7.37
2018-01-06T04:49:40.437Z,6.00
2018-01-06T04:52:07.959Z,4.93
2018-01-06T04:54:35.496Z,4.83
2018-01-06T04:57:03.791Z,11.07
2018-01-06T04:59:31.333Z,11.73
2018-01-06T05:01:58.853Z,6.20
2018-01-06T05:04:26.386Z,9.90
2018-01-06T05:06:53.925Z,9.43
2018-01-06T05:09:21.442Z,11.13
2018-01-06T05:11:48.977Z,6.87
2018-01-06T05:14:16.493Z,8.07
2018-01-06T05:16:44.030Z,5.63
2018-01-06T05:19:12.308Z,10.37
2018-01-06T05:21:40.612Z,12.33
2018-01-06T05:24:08.131Z,7.97
2018-01-06T05:26:36.425Z,9.13
2018-01-06T05:29:03.942Z,7.47
2018-01-06T05:31:31.489Z,10.13
2018-01-06T05:33:59.009Z,10.00
2018-01-06T05:36:26.547Z,7.87
2018-01-06T05:38:55.252Z,7.43
2018-01-06T05:41:23.601Z,6.77
2018-01-06T05:43:51.881Z,6.40
2018-01-06T05:46:19.417Z,7.47
2018-01-06T05:48:46.940Z,9.80
2018-01-06T05:51:14.482Z,10.07
2018-01-06T05:53:42.000Z,7.53
2018-01-06T05:56:09.590Z,14.07
2018-01-06T05:58:37.121Z,13.37
2018-01-06T06:01:05.435Z,14.80
2018-01-06T06:03:32.954Z,15.07
2018-01-06T06:06:01.265Z,19.80
2018-01-06T06:08:28.799Z,16.80
2018-01-06T06:10:57.105Z,18.03
2018-01-06T06:13:25.388Z,17.00
2018-01-06T06:15:52.949Z,15.63
2018-01-06T06:18:21.250Z,18.10
2018-01-06T06:20:48.786Z,12.63
2018-01-06T06:23:16.305Z,13.57
2018-01-06T06:25:44.609Z,12.27
2018-01-06T06:28:12.130Z,12.03
2018-01-06T06:30:40.474Z,23.13
2018-01-06T06:33:08.042Z,14.00
2018-01-06T06:35:35.577Z,13.10
2018-01-06T06:38:03.085Z,13.20
2018-01-06T06:40:31.393Z,13.40
2018-01-06T06:42:58.910Z,13.77
2018-01-06T06:45:27.114Z,11.33
2018-01-06T06:47:55.493Z,15.20
2018-01-06T06:50:23.013Z,12.83
2018-01-06T06:52:50.559Z,14.30
2018-01-06T06:55:19.074Z,16.83
2018-01-06T06:57:47.379Z,16.43
2018-01-06T07:00:15.671Z,13.80
2018-01-06T07:02:43.211Z,9.93
2018-01-06T07:05:10.735Z,11.50
2018-01-06T07:07:38.298Z,9.87
2018-01-06T07:10:05.822Z,10.50
2018-01-06T07:12:33.366Z,13.63
2018-01-06T07:15:00.889Z,14.27
2018-01-06T07:17:28.435Z,16.53
2018-01-06T07:19:56.726Z,15.63
2018-01-06T07:22:24.269Z,12.67
2018-01-06T07:24:52.559Z,15.40
2018-01-06T07:27:20.099Z,12.67
2018-01-06T07:29:48.384Z,14.70
2018-01-06T07:32:15.930Z,18.13
2018-01-06T07:34:44.213Z,11.97
2018-01-06T07:37:12.527Z,16.10
2018-01-06T07:39:40.045Z,15.53
2018-01-06T07:42:08.343Z,15.07
2018-01-06T07:44:35.865Z,15.97
2018-01-06T07:47:03.405Z,13.77
2018-01-06T07:49:30.927Z,14.93
2018-01-06T07:51:58.464Z,15.67
2018-01-06T07:54:25.990Z,14.30
2018-01-06T07:56:53.529Z,13.67
2018-01-06T07:59:21.045Z,14.17
2018-01-06T08:01:48.589Z,15.60
2018-01-06T08:04:16.870Z,13.73
2018-01-06T08:06:45.173Z,16.00
2018-01-06T08:09:12.701Z,13.73
2018-01-06T08:11:41.007Z,16.80
2018-01-06T08:14:08.529Z,15.87
2018-01-06T08:16:36.838Z,22.57
2018-01-06T08:19:04.362Z,26.80
2018-01-06T08:21:32.669Z,31.13
2018-01-06T08:24:00.209Z,22.00
2018-01-06T08:26:36.042Z,21.43
2018-01-06T08:29:04.337Z,20.37
2018-01-06T08:31:31.887Z,22.00
2018-01-06T08:34:00.173Z,19.53
2018-01-06T08:36:27.722Z,17.30
2018-01-06T08:38:56.013Z,19.17
2018-01-06T08:41:23.568Z,15.67
2018-01-06T08:43:51.091Z,13.80
2018-01-06T08:46:18.620Z,14.27
2018-01-06T08:48:46.171Z,15.20
2018-01-06T08:51:13.694Z,10.27
2018-01-06T08:53:42.005Z,17.10
2018-01-06T08:56:09.527Z,13.03
2018-01-06T08:58:37.835Z,11.67
2018-01-06T09:01:05.361Z,10.93
2018-01-06T09:03:33.662Z,9.23
2018-01-06T09:06:02.207Z,11.00
2018-01-06T09:08:30.514Z,7.50
2018-01-06T09:10:58.033Z,7.40
2018-01-06T09:13:25.579Z,8.10
2018-01-06T09:15:53.884Z,6.63
2018-01-06T09:18:22.198Z,10.50
2018-01-06T09:20:49.718Z,6.73
2018-01-06T09:23:18.029Z,5.97
2018-01-06T09:25:45.556Z,6.97
2018-01-06T09:28:13.857Z,6.23
2018-01-06T09:30:41.382Z,5.93
2018-01-06T09:33:09.686Z,6.78
2018-01-06T09:35:37.205Z,5.78
2018-01-06T09:38:05.524Z,5.62
2018-01-06T09:40:33.054Z,6.15
2018-01-06T09:43:01.357Z,4.90
2018-01-06T09:45:28.882Z,6.15
2018-01-06T09:47:57.218Z,6.07
2018-01-06T09:50:24.742Z,7.28
2018-01-06T09:52:52.274Z,9.40
2018-01-06T09:55:20.587Z,4.35
2018-01-06T09:57:48.114Z,5.32
2018-01-06T10:00:16.445Z,5.97
2018-01-06T10:02:43.982Z,6.43
2018-01-06T10:05:11.521Z,5.73
2018-01-06T10:07:39.074Z,5.43
2018-01-06T10:10:06.630Z,5.53
2018-01-06T10:12:34.162Z,5.43
2018-01-06T10:15:01.749Z,5.80
2018-01-06T10:17:29.288Z,5.43
2018-01-06T10:19:57.595Z,7.97
2018-01-06T10:22:25.110Z,3.43
2018-01-06T10:24:52.925Z,5.23
2018-01-06T10:27:20.441Z,4.43
2018-01-06T10:29:47.991Z,4.40
2018-01-06T10:32:15.609Z,6.50
2018-01-06T10:34:43.160Z,4.30
2018-01-06T10:37:10.680Z,4.00
2018-01-06T10:39:38.984Z,3.93
2018-01-06T10:42:06.510Z,4.77
2018-01-06T10:44:34.813Z,6.83
2018-01-06T10:47:02.342Z,5.00
2018-01-06T10:49:29.863Z,3.80
2018-01-06T10:51:57.414Z,4.30
2018-01-06T10:54:24.991Z,4.53
2018-01-06T10:56:52.557Z,4.80
2018-01-06T10:59:20.129Z,3.13
2018-01-06T11:04:48.313Z,4.65
2018-01-06T11:07:15.840Z,4.93
2018-01-06T11:09:43.384Z,3.92
2018-01-06T11:12:10.954Z,4.47
2018-01-06T11:14:38.486Z,3.35
2018-01-06T11:17:06.029Z,4.07
2018-01-06T11:19:34.304Z,3.92
2018-01-06T11:22:02.621Z,5.18
2018-01-06T11:24:30.146Z,3.28
2018-01-06T11:26:58.466Z,3.30
2018-01-06T11:29:25.998Z,4.20
2018-01-06T11:31:53.557Z,4.10
2018-01-06T11:34:21.074Z,3.25
2018-01-06T11:36:48.610Z,4.47
2018-01-06T11:39:16.121Z,4.82
2018-01-06T11:41:43.662Z,2.65
2018-01-06T11:44:11.965Z,2.65
2018-01-06T11:46:39.529Z,3.20
2018-01-06T11:49:07.056Z,7.07
2018-01-06T11:51:35.370Z,3.78
2018-01-06T11:54:02.890Z,3.40
2018-01-06T11:56:31.201Z,2.37
2018-01-06T11:58:58.727Z,2.90
2018-01-06T12:01:27.043Z,3.03
2018-01-06T12:03:54.570Z,2.60
2018-01-06T12:06:22.158Z,3.00
2018-01-06T12:08:49.710Z,3.60
2018-01-06T12:11:17.237Z,2.60
2018-01-06T12:13:45.544Z,2.17
2018-01-06T12:16:13.070Z,1.80
2018-01-06T12:18:41.377Z,2.87
2018-01-06T12:21:08.897Z,2.00
2018-01-06T12:23:36.437Z,1.87
2018-01-06T12:26:04.061Z,2.87
2018-01-06T12:28:31.626Z,2.53
2018-01-06T12:30:59.166Z,2.57
2018-01-06T12:33:26.717Z,2.47
2018-01-06T12:35:54.241Z,2.80
2018-01-06T12:38:21.786Z,2.20
2018-01-06T12:40:49.304Z,4.07
2018-01-06T12:43:16.854Z,4.30
2018-01-06T12:45:44.378Z,4.13
2018-01-06T12:48:11.929Z,6.07
2018-01-06T12:50:39.454Z,6.63
2018-01-06T12:53:07.002Z,7.87
2018-01-06T12:55:34.527Z,3.60
2018-01-06T12:58:02.839Z,3.53
2018-01-06T13:00:30.357Z,4.63
2018-01-06T13:02:58.662Z,4.80
2018-01-06T13:05:26.198Z,7.57
2018-01-06T13:07:53.752Z,8.33
2018-01-06T13:10:22.054Z,10.03
2018-01-06T13:12:49.602Z,8.73
2018-01-06T13:15:17.136Z,9.00
2018-01-06T13:17:45.436Z,10.90
2018-01-06T13:20:12.986Z,9.87
2018-01-06T13:22:40.517Z,8.87
2018-01-06T13:25:08.060Z,12.30
2018-01-06T13:27:36.268Z,10.87
2018-01-06T13:30:04.587Z,12.03
2018-01-06T13:32:32.113Z,11.47
2018-01-06T13:34:59.690Z,13.00
2018-01-06T13:37:27.217Z,12.53
2018-01-06T13:39:55.530Z,12.80
2018-01-06T13:42:23.099Z,14.97
2018-01-06T13:44:50.650Z,15.30
2018-01-06T13:47:18.173Z,13.87
2018-01-06T13:49:46.481Z,15.97
2018-01-06T13:52:14.014Z,15.30
2018-01-06T13:54:41.565Z,14.93
2018-01-06T13:57:09.882Z,16.73
2018-01-06T13:59:37.421Z,15.80
2018-01-06T14:02:04.937Z,17.33
2018-01-06T14:04:32.486Z,14.00
2018-01-06T14:07:00.011Z,18.20
2018-01-06T14:09:27.566Z,19.87
2018-01-06T14:11:55.196Z,19.90
2018-01-06T14:14:22.905Z,17.53
2018-01-06T14:16:50.477Z,20.30
2018-01-06T14:19:18.064Z,18.00
2018-01-06T14:21:46.349Z,17.97
2018-01-06T14:24:14.718Z,17.13
2018-01-06T14:26:43.022Z,110.63
2018-01-06T14:29:10.572Z,66.73
2018-01-06T14:31:38.099Z,31.73
2018-01-06T14:34:06.410Z,535.60
2018-01-06T14:36:33.952Z,119.00
2018-01-06T14:39:02.245Z,22.63
2018-01-06T14:41:29.784Z,23.93
2018-01-06T14:43:58.069Z,23.10
2018-01-06T14:46:26.377Z,44.37
2018-01-06T14:48:53.905Z,39.10
2018-01-06T14:51:21.491Z,22.77
2018-01-06T14:53:49.063Z,25.40
2018-01-06T14:56:16.619Z,19.87
2018-01-06T14:58:44.175Z,19.70
2018-01-06T15:01:11.714Z,27.17
2018-01-06T15:03:39.253Z,23.63
2018-01-06T15:06:07.567Z,25.00
2018-01-06T15:08:35.088Z,26.40
2018-01-06T15:11:03.415Z,22.87
2018-01-06T15:13:30.949Z,23.93
2018-01-06T15:15:59.523Z,23.30
2018-01-06T15:18:27.086Z,23.40
2018-01-06T15:20:54.638Z,25.27
2018-01-06T15:23:22.165Z,26.67
2018-01-06T15:25:50.477Z,28.40
2018-01-06T15:28:18.067Z,31.20
2018-01-06T15:30:45.605Z,26.33
2018-01-06T15:33:13.121Z,31.13
2018-01-06T15:35:41.468Z,30.73
2018-01-06T15:38:09.034Z,31.10
2018-01-06T15:40:36.582Z,27.83
2018-01-06T15:43:04.153Z,28.77
2018-01-06T15:45:31.697Z,32.50
2018-01-06T15:47:59.224Z,29.07
2018-01-06T15:50:26.819Z,28.60
2018-01-06T15:52:54.401Z,28.60
2018-01-06T15:55:21.932Z,29.27
2018-01-06T15:57:49.483Z,34.13
2018-01-06T16:00:17.051Z,36.93
2018-01-06T16:02:44.589Z,32.50
2018-01-06T16:05:12.109Z,35.67
2018-01-06T16:07:40.655Z,42.87
2018-01-06T16:10:08.198Z,49.77
2018-01-06T16:12:35.770Z,91.10
2018-01-06T16:15:03.338Z,91.27
2018-01-06T16:17:30.939Z,130.53
2018-01-06T16:19:58.466Z,84.00
2018-01-06T16:22:26.075Z,77.13
2018-01-06T16:24:53.598Z,78.60
2018-01-06T16:27:21.150Z,76.97
2018-01-06T16:29:49.443Z,66.63
2018-01-06T16:32:17.749Z,37.77
2018-01-06T16:34:45.332Z,35.90
2018-01-06T16:37:12.885Z,38.70
2018-01-06T16:39:40.471Z,36.90
2018-01-06T16:42:08.019Z,31.73
2018-01-06T16:44:35.712Z,36.30
2018-01-06T16:47:03.311Z,38.43
2018-01-06T16:49:30.845Z,35.13
2018-01-06T16:51:58.400Z,41.97
2018-01-06T16:54:25.921Z,56.17
2018-01-06T16:56:53.460Z,56.23
2018-01-06T16:59:21.030Z,60.93
2018-01-06T17:01:48.572Z,57.70
2018-01-06T17:04:16.102Z,42.10
2018-01-06T17:06:43.716Z,32.07
2018-01-06T17:09:11.287Z,44.00
2018-01-06T17:11:39.583Z,42.13
2018-01-06T17:14:07.131Z,66.13
2018-01-06T17:16:34.730Z,76.13
2018-01-06T17:19:02.282Z,63.47
2018-01-06T17:21:29.850Z,34.80
2018-01-06T17:23:57.398Z,49.10
2018-01-06T17:26:25.740Z,241.93
2018-01-06T17:28:54.065Z,317.77
2018-01-06T17:31:21.636Z,335.23
2018-01-06T17:33:49.228Z,110.33
2018-01-06T17:36:17.575Z,102.33
2018-01-06T17:38:45.132Z,371.53
2018-01-06T17:41:12.673Z,405.47
2018-01-06T17:43:40.259Z,488.93
2018-01-06T17:46:07.784Z,190.27
2018-01-06T17:48:35.383Z,292.33
2018-01-06T17:51:02.960Z,481.37
2018-01-06T17:53:31.288Z,219.97
2018-01-06T17:55:58.876Z,124.83
2018-01-06T17:58:26.425Z,400.60
2018-01-06T18:00:53.951Z,314.93
2018-01-06T18:03:21.509Z,534.03
2018-01-06T18:05:49.085Z,416.00
2018-01-06T18:08:16.634Z,498.40
2018-01-06T18:10:44.200Z,200.37
2018-01-06T18:13:11.805Z,273.80
2018-01-06T18:15:39.340Z,474.07
2018-01-06T18:18:06.889Z,264.30
2018-01-06T18:20:34.419Z,377.77
2018-01-06T18:23:02.027Z,149.33
2018-01-06T18:25:29.608Z,367.57
2018-01-06T18:27:57.968Z,441.23
2018-01-06T18:30:25.553Z,168.27
2018-01-06T18:32:53.111Z,137.87
2018-01-06T18:35:21.444Z,127.83
2018-01-06T18:37:49.002Z,236.07
2018-01-06T18:40:16.574Z,175.60
2018-01-06T18:42:44.150Z,222.33
2018-01-06T18:45:12.471Z,298.40
2018-01-06T18:47:40.069Z,369.87
2018-01-06T18:50:07.680Z,203.40
2018-01-06T18:52:35.242Z,181.27
2018-01-06T18:55:02.833Z,244.10
2018-01-06T18:57:30.426Z,273.47
2018-01-06T18:59:58.787Z,237.30
2018-01-06T19:02:26.373Z,210.07
2018-01-06T19:04:54.739Z,135.30
2018-01-06T19:07:23.088Z,253.93
2018-01-06T19:09:50.689Z,362.90
2018-01-06T19:12:19.037Z,248.50
2018-01-06T19:14:46.580Z,277.87
2018-01-06T19:17:14.174Z,345.90
2018-01-06T19:19:42.533Z,237.50
2018-01-06T19:22:10.102Z,121.00
2018-01-06T19:24:37.723Z,258.77
2018-01-06T19:27:05.309Z,198.43
2018-01-06T19:29:32.908Z,461.53
2018-01-06T19:32:00.495Z,213.50
2018-01-06T19:34:28.098Z,169.53
2018-01-06T19:36:56.452Z,150.30
2018-01-06T19:39:24.036Z,167.60
2018-01-06T19:41:51.616Z,197.13
2018-01-06T19:44:19.982Z,170.77
2018-01-06T19:46:48.329Z,247.57
2018-01-06T19:49:15.925Z,312.17
2018-01-06T19:51:44.255Z,452.10
2018-01-06T19:54:11.861Z,184.60
2018-01-06T19:56:40.215Z,209.77
2018-01-06T19:59:07.812Z,312.93
2018-01-06T20:01:35.410Z,318.07
2018-01-06T20:04:03.012Z,408.93
2018-01-06T20:06:31.356Z,541.27
2018-01-06T20:08:58.954Z,255.57
2018-01-06T20:11:27.298Z,437.90
2018-01-06T20:13:54.879Z,256.60
2018-01-06T20:16:23.252Z,274.27
2018-01-06T20:18:50.834Z,185.60
2018-01-06T20:21:19.197Z,150.70
2018-01-06T20:23:47.545Z,186.87
2018-01-06T20:26:15.145Z,170.57
2018-01-06T20:28:43.485Z,327.87
2018-01-06T20:31:11.097Z,84.83
2018-01-06T20:33:38.699Z,337.03
2018-01-06T20:36:06.289Z,71.03
2018-01-06T20:38:34.625Z,77.97
2018-01-06T20:41:02.233Z,112.27
2018-01-06T20:43:30.589Z,178.97
2018-01-06T20:45:58.183Z,188.43
2018-01-06T20:48:25.764Z,423.07
2018-01-06T20:50:53.363Z,137.23
2018-01-06T20:53:20.945Z,186.67
2018-01-06T20:55:49.308Z,124.17
2018-01-06T20:58:16.881Z,148.13
2018-01-06T21:00:45.245Z,250.87
2018-01-06T21:03:12.828Z,184.13
2018-01-06T21:05:41.215Z,299.43
2018-01-06T21:08:08.863Z,328.27
2018-01-06T21:10:37.229Z,107.00
2018-01-06T21:13:05.593Z,366.10
2018-01-06T21:15:33.197Z,354.57
2018-01-06T21:18:00.772Z,178.67
2018-01-06T21:20:28.369Z,145.30
2018-01-06T21:22:55.965Z,107.07
2018-01-06T21:25:23.592Z,118.47
2018-01-06T21:27:51.300Z,212.10
2018-01-06T21:30:18.918Z,228.20
2018-01-06T21:32:46.497Z,190.60
2018-01-06T21:35:14.837Z,208.70
2018-01-06T21:37:42.439Z,95.63
2018-01-06T21:40:10.785Z,134.40
2018-01-06T21:42:38.387Z,391.97
2018-01-06T21:45:05.976Z,398.83
2018-01-06T21:47:33.571Z,193.30
2018-01-06T21:50:01.174Z,209.50
2018-01-06T21:52:28.772Z,227.87
2018-01-06T21:54:56.349Z,129.97
2018-01-06T21:57:23.946Z,153.50
2018-01-06T21:59:51.519Z,82.77
2018-01-06T22:02:19.107Z,153.40
2018-01-06T22:04:46.677Z,78.50
2018-01-06T22:07:14.288Z,209.77
2018-01-06T22:09:41.861Z,113.53
2018-01-06T22:12:09.455Z,64.23
2018-01-06T22:14:37.037Z,285.63
2018-01-06T22:17:05.401Z,212.47
2018-01-06T22:19:33.005Z,167.57
2018-01-06T22:22:00.610Z,165.60
2018-01-06T22:24:28.196Z,74.03
2018-01-06T22:26:56.578Z,118.47
2018-01-06T22:29:24.924Z,114.30
2018-01-06T22:31:52.511Z,96.43
2018-01-06T22:34:20.866Z,171.63
2018-01-06T22:36:48.476Z,69.20
2018-01-06T22:39:16.047Z,58.00
2018-01-06T22:41:43.647Z,183.83
2018-01-06T22:44:11.228Z,44.13
2018-01-06T22:46:39.593Z,44.40
2018-01-06T22:49:07.165Z,60.47
2018-01-06T22:51:35.534Z,44.83
2018-01-06T22:54:03.881Z,44.80
2018-01-06T22:56:51.961Z,41.37
2018-01-06T22:59:20.306Z,39.60
2018-01-06T23:01:47.907Z,55.73
2018-01-06T23:04:15.500Z,17.27
2018-01-06T23:06:43.072Z,45.67
2018-01-06T23:09:10.673Z,37.37
2018-01-06T23:11:39.013Z,34.73
2018-01-06T23:14:06.613Z,39.23
2018-01-06T23:16:34.947Z,26.63
2018-01-06T23:19:02.542Z,49.97
2018-01-06T23:21:30.881Z,44.10
2018-01-06T23:23:58.455Z,37.23
2018-01-06T23:26:26.025Z,50.20
2018-01-06T23:28:53.626Z,30.00
2018-01-06T23:31:21.205Z,66.67
2018-01-06T23:33:48.795Z,35.37
2018-01-06T23:36:22.655Z,84.50
2018-01-06T23:38:50.261Z,65.60
2018-01-06T23:41:17.833Z,38.30
2018-01-06T23:43:45.435Z,41.63
2018-01-06T23:46:13.000Z,43.00
2018-01-06T23:48:40.590Z,46.17
2018-01-06T23:51:08.220Z,32.23
2018-01-06T23:53:36.582Z,56.33
2018-01-06T23:56:04.156Z,66.47
2018-01-06T23:58:31.766Z,49.93
